Time;durP1;ratioP1;P1;durP2;ratioP2;P2;SDS_P1;SDS_P2;PMS_P1;PMS_P2;Temp;Humidity;BMP_temperature;BMP_pressure;BME280_temperature;BME280_humidity;BME280_pressure;Samples;Min_cycle;Max_cycle;Signal;HPM_P1;HPM_P2
2023/03/30 00:00:00;;;;;;;6.65;3.10;;;;;;;13.27;73.40;100548.13;5014793;28;20104;-65
2023/03/30 00:02:29;;;;;;;7.15;3.15;;;;;;;13.33;73.21;100549.91;5013315;28;20467;-65
2023/03/30 00:05:01;;;;;;;10.07;2.90;;;;;;;13.38;72.71;100542.78;5014884;28;20381;-66
2023/03/30 00:07:30;;;;;;;8.65;3.00;;;;;;;13.38;72.91;100526.88;5015174;28;20042;-66
2023/03/30 00:09:57;;;;;;;5.50;2.78;;;;;;;13.38;72.73;100540.13;5014667;28;20105;-66
2023/03/30 00:12:22;;;;;;;7.45;2.80;;;;;;;13.39;72.48;100534.81;5014660;28;20026;-66
2023/03/30 00:14:49;;;;;;;5.45;2.72;;;;;;;13.36;72.48;100524.22;5014773;28;20025;-66
2023/03/30 00:17:14;;;;;;;5.93;2.75;;;;;;;13.35;72.60;100517.13;5014499;28;20571;-66
2023/03/30 00:19:40;;;;;;;6.32;2.60;;;;;;;13.33;72.51;100515.41;5014663;28;20026;-65
2023/03/30 00:22:07;;;;;;;11.43;2.90;;;;;;;13.32;72.60;100516.25;4996784;28;20168;-66
2023/03/30 00:24:33;;;;;;;7.13;3.00;;;;;;;13.30;72.49;100515.41;5013964;28;20026;-66
2023/03/30 00:26:58;;;;;;;9.35;2.92;;;;;;;13.27;72.06;100517.19;5014624;28;20030;-66
2023/03/30 00:29:25;;;;;;;4.82;2.90;;;;;;;13.26;72.02;100504.81;5014145;28;20583;-66
2023/03/30 00:31:50;;;;;;;4.97;3.10;;;;;;;13.25;72.28;100511.00;5014536;28;20109;-66
2023/03/30 00:34:16;;;;;;;7.60;3.10;;;;;;;13.26;72.18;100507.44;5014295;28;20099;-66
2023/03/30 00:36:41;;;;;;;5.60;2.90;;;;;;;13.25;72.39;100516.31;5014389;28;20387;-66
2023/03/30 00:39:07;;;;;;;12.35;3.00;;;;;;;13.26;72.52;100503.91;5014167;28;20117;-66
2023/03/30 00:41:35;;;;;;;9.63;2.92;;;;;;;13.27;72.07;100497.72;5013929;28;20495;-66
2023/03/30 00:44:04;;;;;;;8.70;2.95;;;;;;;13.26;72.00;100490.66;5014337;28;20068;-66
2023/03/30 00:46:30;;;;;;;8.73;3.30;;;;;;;13.25;71.99;100495.09;5014096;28;20022;-66
2023/03/30 00:48:59;;;;;;;6.30;2.67;;;;;;;13.23;71.87;100486.28;5013786;28;20383;-66
2023/03/30 00:51:27;;;;;;;6.38;3.00;;;;;;;13.23;71.41;100486.28;5013977;28;20029;-66
2023/03/30 00:53:58;;;;;;;9.73;2.70;;;;;;;13.20;71.54;100467.66;5013805;28;20161;-66
2023/03/30 00:56:28;;;;;;;8.05;2.80;;;;;;;13.19;71.47;100463.25;5013758;28;20464;-65
2023/03/30 00:58:53;;;;;;;7.00;2.67;;;;;;;13.19;71.42;100465.00;5011161;28;20559;-65
2023/03/30 01:01:27;;;;;;;8.57;2.88;;;;;;;13.18;71.64;100456.16;5013588;28;20117;-65
2023/03/30 01:03:56;;;;;;;8.20;2.50;;;;;;;13.19;71.50;100451.75;5013899;28;20033;-65
2023/03/30 01:06:24;;;;;;;7.10;2.75;;;;;;;13.18;71.74;100458.81;5013332;28;20038;-66
2023/03/30 01:08:51;;;;;;;6.60;2.70;;;;;;;13.19;71.95;100454.38;5013474;28;20111;-65
2023/03/30 01:11:17;;;;;;;8.48;2.53;;;;;;;13.22;71.88;100459.69;5013770;28;20030;-66
2023/03/30 01:13:51;;;;;;;5.28;2.60;;;;;;;13.22;72.01;100452.63;5013872;28;20049;-66
2023/03/30 01:16:26;;;;;;;7.45;3.00;;;;;;;13.23;72.21;100450.88;5013838;28;20030;-66
2023/03/30 01:18:53;;;;;;;6.07;2.80;;;;;;;13.18;72.39;100455.28;5013415;28;20480;-65
2023/03/30 01:21:44;;;;;;;8.10;3.00;;;;;;;13.14;72.99;100454.41;5013664;28;20069;-66
2023/03/30 01:24:41;;;;;;;9.55;2.83;;;;;;;13.09;73.16;100458.88;5012075;28;20061;-65
2023/03/30 01:27:39;;;;;;;6.55;2.83;;;;;;;13.04;73.31;100458.03;5013597;28;20115;-66
2023/03/30 01:30:13;;;;;;;5.40;2.80;;;;;;;13.00;73.34;100459.81;5013455;28;20038;-65
2023/03/30 01:33:00;;;;;;;7.40;2.90;;;;;;;12.99;73.66;100446.56;5013260;28;20064;-66
2023/03/30 01:35:28;;;;;;;6.40;2.75;;;;;;;12.95;73.75;100469.56;5012426;28;20036;-66
2023/03/30 01:38:26;;;;;;;10.63;2.90;;;;;;;12.93;74.07;100455.47;5013242;28;20037;-66
2023/03/30 01:41:12;;;;;;;6.95;2.80;;;;;;;12.93;73.97;100446.59;5013210;28;20029;-66
2023/03/30 01:43:51;;;;;;;6.85;2.67;;;;;;;12.93;74.30;100447.50;5013387;28;20156;-66
2023/03/30 01:46:23;;;;;;;6.45;3.17;;;;;;;12.94;74.23;100451.03;5013228;28;20061;-66
2023/03/30 01:48:57;;;;;;;;;;;;;;;12.97;74.20;100437.72;5013503;28;20030;-66
2023/03/30 01:51:27;;;;;;;4.80;2.45;;;;;;;13.03;73.53;100437.72;5013447;28;19913;-65
2023/03/30 01:54:01;;;;;;;6.68;2.50;;;;;;;13.11;73.13;100432.38;5013128;28;20029;-65
2023/03/30 01:56:38;;;;;;;7.07;2.65;;;;;;;13.15;73.35;100426.16;5013390;28;20026;-65
2023/03/30 01:59:15;;;;;;;5.53;2.50;;;;;;;13.25;72.86;100446.44;5013000;28;20030;-65
2023/03/30 02:01:42;;;;;;;5.50;2.58;;;;;;;13.27;72.68;100460.56;5013060;28;20054;-66
2023/03/30 02:04:10;;;;;;;4.70;2.50;;;;;;;13.32;72.43;100452.56;5012851;28;20034;-66
2023/03/30 02:06:44;;;;;;;7.18;2.80;;;;;;;13.31;72.58;100457.00;5011771;28;20030;-65
2023/03/30 02:09:14;;;;;;;5.45;2.42;;;;;;;13.31;72.42;100451.69;5012974;28;20033;-66
2023/03/30 02:11:45;;;;;;;8.63;2.50;;;;;;;13.38;72.02;100447.25;5011570;28;20112;-66
2023/03/30 02:14:14;;;;;;;5.93;2.47;;;;;;;13.40;71.79;100459.59;5011469;28;20022;-65
2023/03/30 02:16:45;;;;;;;8.15;2.85;;;;;;;13.43;71.51;100456.03;5012769;28;20022;-66
2023/03/30 02:19:11;;;;;;;8.55;2.78;;;;;;;13.43;72.03;100451.63;5012714;28;20084;-66
2023/03/30 02:21:37;;;;;;;6.47;2.70;;;;;;;13.43;72.16;100445.44;5012913;28;20033;-66
2023/03/30 02:24:06;;;;;;;6.55;2.75;;;;;;;13.42;72.10;100441.03;5012803;28;20034;-65
2023/03/30 02:26:32;;;;;;;7.15;2.80;;;;;;;13.40;72.42;100442.78;5012949;28;20109;-66
2023/03/30 02:28:58;;;;;;;6.75;2.67;;;;;;;13.36;72.55;100439.31;5012826;28;20041;-66
2023/03/30 02:31:23;;;;;;;4.47;2.42;;;;;;;13.32;72.80;100434.91;5012734;28;20464;-66
2023/03/30 02:34:23;;;;;;;7.63;2.40;;;;;;;13.28;73.13;100435.81;5012604;28;20026;-65
2023/03/30 02:37:29;;;;;;;6.80;2.60;;;;;;;13.26;73.18;100446.44;5012824;28;20044;-65
2023/03/30 02:40:22;;;;;;;7.97;2.70;;;;;;;13.23;73.53;100443.81;5010410;28;20038;-66
2023/03/30 02:43:11;;;;;;;5.88;2.30;;;;;;;13.22;73.38;100442.03;5012648;28;20026;-66
2023/03/30 02:45:59;;;;;;;7.53;2.60;;;;;;;13.21;73.66;100436.72;5012718;28;20026;-66
2023/03/30 02:48:43;;;;;;;6.50;2.88;;;;;;;13.19;73.78;100435.81;5016108;28;20026;-65
2023/03/30 02:51:27;;;;;;;6.05;2.53;;;;;;;13.18;73.83;100439.38;5016177;28;20468;-65
2023/03/30 02:54:20;;;;;;;5.40;2.53;;;;;;;13.15;73.74;100437.63;5016470;28;20105;-66
2023/03/30 02:57:13;;;;;;;6.22;2.60;;;;;;;13.19;74.02;100438.47;5016046;28;20476;-65
2023/03/30 02:59:45;;;;;;;8.60;2.60;;;;;;;13.20;73.88;100432.31;5015819;28;20538;-67
2023/03/30 03:02:18;;;;;;;6.82;2.72;;;;;;;13.22;73.67;100442.03;5016030;28;20357;-65
2023/03/30 03:04:45;;;;;;;7.38;2.67;;;;;;;13.23;73.60;100437.59;5015553;28;20037;-65
2023/03/30 03:07:12;;;;;;;6.85;2.60;;;;;;;13.27;73.48;100434.94;5015847;28;20056;-66
2023/03/30 03:09:38;;;;;;;7.15;2.55;;;;;;;13.30;73.48;100435.78;5016160;28;20053;-66
2023/03/30 03:12:04;;;;;;;7.50;2.70;;;;;;;13.34;73.07;100424.28;5015752;28;20030;-65
2023/03/30 03:14:30;;;;;;;7.50;2.40;;;;;;;13.35;73.28;100416.28;5015705;28;20033;-66
2023/03/30 03:16:55;;;;;;;8.65;2.80;;;;;;;13.43;72.54;100426.84;5015709;28;20034;-66
2023/03/30 03:19:20;;;;;;;9.35;2.65;;;;;;;13.44;72.25;100423.28;5014448;28;20471;-66
2023/03/30 03:21:46;;;;;;;8.63;2.50;;;;;;;13.49;72.52;100443.63;5015602;28;20022;-65
2023/03/30 03:24:16;;;;;;;8.23;2.63;;;;;;;13.51;71.75;100436.50;5015480;28;20080;-66
2023/03/30 03:26:41;;;;;;;8.25;2.45;;;;;;;13.52;72.31;100424.13;5014648;28;20038;-66
2023/03/30 03:29:08;;;;;;;9.13;2.67;;;;;;;13.50;72.27;100416.19;5015294;28;20022;-65
2023/03/30 03:31:34;;;;;;;5.82;2.53;;;;;;;13.55;72.49;100415.25;5014134;28;20030;-65
2023/03/30 03:34:03;;;;;;;7.05;2.72;;;;;;;13.53;72.21;100417.91;5015470;28;20858;-65
2023/03/30 03:36:29;;;;;;;7.28;2.33;;;;;;;13.55;72.55;100429.41;5015255;28;20390;-66
2023/03/30 03:38:55;;;;;;;4.40;2.50;;;;;;;13.53;72.89;100415.25;5015509;28;20022;-65
2023/03/30 03:41:20;;;;;;;10.60;2.53;;;;;;;13.51;72.59;100414.41;5015154;28;20080;-66
2023/03/30 03:43:45;;;;;;;7.28;2.60;;;;;;;13.51;72.51;100415.28;5015225;28;20022;-66
2023/03/30 03:46:11;;;;;;;8.10;2.70;;;;;;;13.50;72.16;100412.66;5015224;28;20468;-65
2023/03/30 03:48:38;;;;;;;7.82;2.80;;;;;;;13.50;72.27;100402.91;5014803;28;20202;-65
2023/03/30 03:51:04;;;;;;;5.55;2.60;;;;;;;13.52;72.29;100406.41;5015018;28;20022;-66
2023/03/30 03:53:33;;;;;;;9.20;2.65;;;;;;;13.55;71.88;100412.63;5012902;28;20038;-66
2023/03/30 03:55:58;;;;;;;5.70;2.53;;;;;;;13.52;71.97;100408.19;5014910;28;20033;-66
2023/03/30 03:58:25;;;;;;;7.13;2.40;;;;;;;13.52;71.47;100398.44;5014060;28;20220;-66
2023/03/30 04:00:51;;;;;;;8.40;2.70;;;;;;;13.55;71.37;100404.66;5014714;28;20108;-66
2023/03/30 04:03:17;;;;;;;7.75;2.80;;;;;;;13.50;71.19;100397.59;5015007;28;20374;-66
2023/03/30 04:05:43;;;;;;;8.55;2.47;;;;;;;13.56;70.94;100407.28;5012999;28;20116;-66
2023/03/30 04:08:09;;;;;;;4.85;2.20;;;;;;;13.58;70.93;100409.94;5014789;28;20426;-65
2023/03/30 04:10:39;;;;;;;5.97;2.25;;;;;;;13.60;70.51;100406.34;5014886;28;20041;-65
2023/03/30 04:13:05;;;;;;;5.57;2.40;;;;;;;13.63;70.68;100393.06;5014895;28;20048;-66
2023/03/30 04:15:30;;;;;;;6.63;2.60;;;;;;;13.61;72.13;100397.50;5014863;28;20528;-66
2023/03/30 04:17:59;;;;;;;6.70;2.40;;;;;;;13.61;72.13;100397.50;5014586;28;20026;-66
2023/03/30 04:20:26;;;;;;;9.13;2.70;;;;;;;13.56;72.54;100396.66;5014688;28;20105;-66
2023/03/30 04:22:52;;;;;;;7.80;2.50;;;;;;;13.53;72.82;100388.72;5014384;28;20032;-66
2023/03/30 04:25:20;;;;;;;13.20;2.60;;;;;;;13.49;72.95;100387.00;5014598;28;20423;-66
2023/03/30 04:27:49;;;;;;;4.82;2.35;;;;;;;13.45;72.88;100387.94;5014589;28;20083;-66
2023/03/30 04:30:16;;;;;;;9.32;2.50;;;;;;;13.42;72.71;100387.94;5014303;28;20121;-66
2023/03/30 04:32:43;;;;;;;8.55;2.67;;;;;;;13.35;73.50;100384.44;5014088;28;20485;-66
2023/03/30 04:35:09;;;;;;;7.10;2.63;;;;;;;13.33;73.61;100380.06;5014230;28;20113;-66
2023/03/30 04:37:37;;;;;;;10.40;2.72;;;;;;;13.30;73.55;100372.13;5014121;28;20026;-65
2023/03/30 04:40:08;;;;;;;12.98;2.75;;;;;;;13.25;74.00;100369.50;5014365;28;20105;-65
2023/03/30 04:42:36;;;;;;;4.32;2.30;;;;;;;13.21;73.98;100375.69;5014080;28;20075;-66
2023/03/30 04:45:09;;;;;;;5.68;2.67;;;;;;;13.19;73.94;100377.44;5012573;28;20099;-66
2023/03/30 04:47:34;;;;;;;;;;;;;;;13.20;74.16;100366.84;5014598;28;20041;-65
2023/03/30 04:50:00;;;;;;;8.00;2.80;;;;;;;13.15;74.16;100376.63;5014042;28;19917;-66
2023/03/30 04:52:26;;;;;;;6.95;2.60;;;;;;;13.10;74.24;100359.84;5013897;28;20484;-66
2023/03/30 04:54:51;;;;;;;8.15;2.60;;;;;;;13.08;74.46;100358.09;5013874;28;20029;-65
2023/03/30 04:57:17;;;;;;;9.27;2.55;;;;;;;13.04;74.59;100366.06;5014016;28;20029;-66
2023/03/30 04:59:43;;;;;;;7.72;2.63;;;;;;;13.02;74.63;100369.66;5013592;28;20479;-65
2023/03/30 05:02:10;;;;;;;7.80;2.55;;;;;;;12.99;74.74;100370.53;5013935;28;20026;-66
2023/03/30 05:04:36;;;;;;;8.73;2.70;;;;;;;12.97;75.24;100371.41;5013501;28;20487;-66
2023/03/30 05:07:02;;;;;;;7.93;2.35;;;;;;;12.95;75.18;100379.41;5013614;28;20049;-65
2023/03/30 05:09:28;;;;;;;6.30;2.60;;;;;;;12.95;75.58;100383.81;5013313;28;20445;-65
2023/03/30 05:11:54;;;;;;;6.57;2.63;;;;;;;12.93;75.98;100399.75;5013412;28;20033;-66
2023/03/30 05:14:19;;;;;;;10.13;2.80;;;;;;;12.88;77.46;100411.25;5013608;28;20113;-66
2023/03/30 05:16:45;;;;;;;7.85;2.70;;;;;;;12.86;78.41;100419.25;4996171;28;20034;-65
2023/03/30 05:19:10;;;;;;;6.60;2.83;;;;;;;12.80;82.18;100421.91;5013380;28;20080;-66
2023/03/30 05:21:37;;;;;;;8.50;3.28;;;;;;;12.75;84.11;100410.44;5023983;28;20038;-66
2023/03/30 05:24:03;;;;;;;7.82;2.65;;;;;;;12.70;84.63;100417.56;5033234;28;20076;-66
2023/03/30 05:26:28;;;;;;;11.07;3.00;;;;;;;12.63;85.67;100421.97;5033176;28;20081;-66
2023/03/30 05:28:54;;;;;;;6.57;2.85;;;;;;;12.57;87.17;100437.94;5032958;28;20025;-67
2023/03/30 05:31:20;;;;;;;12.60;3.17;;;;;;;12.55;87.86;100431.75;5033265;28;20034;-67
2023/03/30 05:33:46;;;;;;;10.07;3.15;;;;;;;12.49;89.50;100429.13;5033347;28;20021;-67
2023/03/30 05:36:12;;;;;;;6.93;3.10;;;;;;;12.42;89.60;100433.59;5033346;28;20037;-67
2023/03/30 05:38:37;;;;;;;7.55;3.20;;;;;;;12.43;89.80;100438.00;5033203;28;20025;-67
2023/03/30 05:41:05;;;;;;;8.73;3.28;;;;;;;12.37;90.61;100426.50;5032923;28;20032;-67
2023/03/30 05:43:34;;;;;;;7.50;3.03;;;;;;;12.34;90.77;100439.78;5032824;28;20022;-67
2023/03/30 05:46:01;;;;;;;5.95;3.00;;;;;;;12.31;90.96;100439.78;5031621;28;20428;-67
2023/03/30 05:48:27;;;;;;;5.57;2.90;;;;;;;12.25;91.26;100444.22;5032696;28;20475;-68
2023/03/30 05:50:52;;;;;;;6.90;3.03;;;;;;;12.21;91.74;100442.47;5032854;28;20467;-68
2023/03/30 05:53:18;;;;;;;9.23;3.20;;;;;;;12.18;92.32;100445.13;5031440;28;20037;-68
2023/03/30 05:55:45;;;;;;;8.13;3.30;;;;;;;12.12;93.00;100441.59;5032760;28;20057;-69
2023/03/30 05:58:11;;;;;;;8.23;3.30;;;;;;;12.06;93.86;100437.19;5032731;28;20049;-68
2023/03/30 06:00:37;;;;;;;8.70;3.20;;;;;;;12.01;94.43;100431.91;5032547;28;20018;-69
2023/03/30 06:03:03;;;;;;;8.20;3.50;;;;;;;11.94;94.71;100438.09;5032593;28;20532;-69
2023/03/30 06:05:32;;;;;;;10.13;2.75;;;;;;;11.93;94.63;100436.31;5032357;28;20046;-69
2023/03/30 06:07:59;;;;;;;11.48;3.05;;;;;;;11.91;94.78;100458.41;5032744;28;20414;-69
2023/03/30 06:10:25;;;;;;;9.90;2.85;;;;;;;11.94;94.99;100453.09;5032745;28;20036;-69
2023/03/30 06:12:50;;;;;;;8.35;3.08;;;;;;;11.84;95.45;100448.69;5032906;28;20034;-69
2023/03/30 06:15:16;;;;;;;11.45;3.38;;;;;;;11.82;96.28;100459.28;5032716;28;20378;-70
2023/03/30 06:17:41;;;;;;;11.75;3.35;;;;;;;11.77;96.92;100458.38;5031273;28;20403;-69
2023/03/30 06:20:10;;;;;;;12.02;3.38;;;;;;;11.74;97.19;100453.09;5032469;28;20029;-69
2023/03/30 06:22:36;;;;;;;9.82;3.15;;;;;;;11.73;96.56;100454.88;5035641;28;20497;-69
2023/03/30 06:25:01;;;;;;;9.82;3.55;;;;;;;11.78;96.07;100457.50;5036494;28;20116;-69
2023/03/30 06:27:30;;;;;;;12.27;3.03;;;;;;;11.82;95.45;100456.63;5030305;28;20022;-69
2023/03/30 06:29:55;;;;;;;11.80;3.08;;;;;;;11.79;95.05;100478.66;5036162;28;20034;-70
2023/03/30 06:32:21;;;;;;;10.02;3.38;;;;;;;11.79;95.35;100464.56;5036339;28;20159;-70
2023/03/30 06:34:46;;;;;;;13.07;3.50;;;;;;;11.83;95.33;100487.53;5034902;28;20048;-70
2023/03/30 06:37:12;;;;;;;10.13;3.00;;;;;;;11.88;94.63;100472.53;5036220;28;20444;-70
2023/03/30 06:39:37;;;;;;;9.45;3.08;;;;;;;11.90;94.86;100491.03;5034680;28;20076;-70
2023/03/30 06:42:04;;;;;;;7.57;2.85;;;;;;;11.87;94.66;100475.19;5035990;28;20026;-70
2023/03/30 06:44:30;;;;;;;10.70;3.03;;;;;;;11.82;95.35;100485.75;5035863;28;20108;-69
2023/03/30 06:46:56;;;;;;;10.77;3.30;;;;;;;11.79;95.58;100485.72;5034876;28;20125;-69
2023/03/30 06:49:21;;;;;;;9.10;3.08;;;;;;;11.77;96.18;100485.72;5035972;28;20025;-70
2023/03/30 06:51:47;;;;;;;12.00;2.97;;;;;;;11.80;96.21;100482.19;5036003;28;20079;-69
2023/03/30 06:54:12;;;;;;;9.45;3.20;;;;;;;11.84;96.71;100485.78;5035833;28;20049;-70
2023/03/30 06:56:37;;;;;;;10.82;3.00;;;;;;;11.98;96.93;100483.97;5035906;28;20124;-69
2023/03/30 06:59:04;;;;;;;11.15;3.17;;;;;;;12.06;95.96;100474.25;5035657;28;20033;-70
2023/03/30 07:01:30;;;;;;;10.38;2.92;;;;;;;12.10;95.79;100478.69;5035741;28;20025;-69
2023/03/30 07:03:55;;;;;;;10.38;2.70;;;;;;;12.28;95.17;100485.69;5035649;28;20061;-70
2023/03/30 07:06:21;;;;;;;10.82;3.10;;;;;;;12.49;93.99;100487.44;5035581;28;20545;-70
2023/03/30 07:08:47;;;;;;;12.50;2.95;;;;;;;12.63;93.43;100476.78;5035644;28;20025;-70
2023/03/30 07:11:12;;;;;;;14.50;2.88;;;;;;;12.83;92.33;100480.22;5035602;28;20092;-71
2023/03/30 07:13:38;;;;;;;9.75;2.80;;;;;;;12.99;91.31;100491.66;5035589;28;20025;-70
2023/03/30 07:16:03;;;;;;;11.00;2.83;;;;;;;13.15;90.91;100488.03;5035511;28;20022;-70
2023/03/30 07:18:30;;;;;;;8.68;2.90;;;;;;;13.34;89.74;100487.97;5035527;28;20359;-71
2023/03/30 07:20:58;;;;;;;10.25;2.55;;;;;;;13.46;88.85;100488.75;5035307;28;20037;-71
2023/03/30 07:23:23;;;;;;;7.82;2.60;;;;;;;13.62;88.02;100494.84;5035206;28;20364;-70
2023/03/30 07:25:50;;;;;;;10.80;2.75;;;;;;;13.78;86.49;100490.28;5035366;28;20032;-71
2023/03/30 07:28:16;;;;;;;10.18;2.45;;;;;;;13.93;85.52;100487.50;5035465;28;20036;-70
2023/03/30 07:30:41;;;;;;;11.50;2.88;;;;;;;14.01;84.83;100495.44;5033930;28;20070;-70
2023/03/30 07:33:10;;;;;;;12.20;2.70;;;;;;;14.01;83.74;100498.97;5033804;28;20026;-70
2023/03/30 07:35:41;;;;;;;11.40;2.80;;;;;;;14.00;83.75;100502.50;5035097;28;20095;-70
2023/03/30 07:38:07;;;;;;;9.77;2.70;;;;;;;13.92;83.26;100503.47;5035079;28;20044;-70
2023/03/30 07:40:32;;;;;;;10.65;2.63;;;;;;;13.86;83.62;100503.50;5034859;28;20029;-69
2023/03/30 07:42:58;;;;;;;13.15;2.90;;;;;;;13.78;83.35;100507.09;5033762;28;20033;-70
2023/03/30 07:45:23;;;;;;;10.60;2.80;;;;;;;13.73;83.61;100511.56;5035197;28;20029;-69
2023/03/30 07:47:48;;;;;;;10.85;2.83;;;;;;;13.67;83.29;100516.94;5034897;28;20036;-69
2023/03/30 07:50:14;;;;;;;10.50;2.70;;;;;;;13.63;84.22;100517.84;5034758;28;20479;-69
2023/03/30 07:52:39;;;;;;;12.18;3.00;;;;;;;13.61;84.06;100519.63;5034810;28;20061;-69
2023/03/30 07:55:05;;;;;;;12.68;2.80;;;;;;;13.58;83.50;100524.09;5034698;28;20036;-68
2023/03/30 07:57:31;;;;;;;11.15;2.72;;;;;;;13.52;83.86;100517.91;5034841;28;20056;-69
2023/03/30 07:59:56;;;;;;;13.13;2.90;;;;;;;13.52;83.81;100532.97;5033075;28;20021;-68
2023/03/30 08:02:21;;;;;;;14.20;3.00;;;;;;;13.51;84.39;100529.44;5034670;28;20449;-69
2023/03/30 08:04:51;;;;;;;14.30;3.20;;;;;;;13.57;84.21;100528.50;5016547;28;20022;-70
2023/03/30 08:07:17;;;;;;;9.05;2.60;;;;;;;13.61;83.95;100534.66;5034254;28;20068;-68
2023/03/30 08:09:44;;;;;;;11.27;3.00;;;;;;;13.64;83.16;100545.28;5034420;28;20033;-68
2023/03/30 08:12:10;;;;;;;11.77;2.78;;;;;;;13.62;83.21;100547.94;5034682;28;20060;-67
2023/03/30 08:14:36;;;;;;;11.88;3.00;;;;;;;13.67;83.18;100539.97;5034391;28;20475;-67
2023/03/30 08:17:02;;;;;;;12.32;2.85;;;;;;;13.68;83.14;100547.03;5034349;28;20029;-67
2023/03/30 08:19:28;;;;;;;12.70;3.13;;;;;;;13.73;82.29;100559.38;5034224;28;20033;-67
2023/03/30 08:21:55;;;;;;;12.40;3.30;;;;;;;13.73;81.85;100548.75;5033068;28;20133;-67
2023/03/30 08:24:21;;;;;;;10.70;3.13;;;;;;;13.70;81.42;100561.16;5034480;28;20076;-67
2023/03/30 08:26:46;;;;;;;13.52;3.25;;;;;;;13.72;81.87;100556.72;5034124;28;20026;-67
2023/03/30 08:29:12;;;;;;;12.85;3.00;;;;;;;13.72;80.63;100560.25;5033900;28;20053;-67
2023/03/30 08:31:37;;;;;;;12.27;3.38;;;;;;;13.68;81.35;100553.22;5034044;28;20434;-67
2023/03/30 08:34:03;;;;;;;11.00;2.90;;;;;;;13.66;80.71;100555.00;5033922;28;20076;-68
2023/03/30 08:36:29;;;;;;;22.30;3.38;;;;;;;13.67;80.05;100553.22;5033541;28;20061;-67
2023/03/30 08:38:55;;;;;;;10.50;3.08;;;;;;;13.68;79.65;100552.34;5033678;28;20487;-67
2023/03/30 08:41:31;;;;;;;15.30;3.05;;;;;;;13.74;77.32;100558.47;5034200;28;20352;-67
2023/03/30 08:44:04;;;;;;;13.60;3.33;;;;;;;13.62;78.20;100528.47;5032050;28;20083;-68
2023/03/30 08:46:29;;;;;;;17.15;3.15;;;;;;;14.01;78.72;100545.91;5033789;28;20098;-67
2023/03/30 08:49:01;;;;;;;15.75;3.28;;;;;;;14.33;76.46;100558.00;5032938;28;20493;-67
2023/03/30 08:51:29;;;;;;;14.93;3.22;;;;;;;14.55;73.98;100566.69;5033931;28;20124;-67
2023/03/30 08:54:00;;;;;;;11.95;3.42;;;;;;;14.77;73.60;100560.25;5033628;28;20022;-66
2023/03/30 08:56:32;;;;;;;14.25;3.13;;;;;;;15.04;72.85;100564.38;5033863;28;20029;-65
2023/03/30 08:59:05;;;;;;;;;;;;;;;15.31;72.99;100555.16;5034159;28;20502;-66
2023/03/30 09:02:12;;;;;;;14.30;3.38;;;;;;;15.53;68.97;100561.94;5032805;28;20008;-66
2023/03/30 09:04:44;;;;;;;14.60;3.50;;;;;;;15.69;69.33;100572.44;4969218;28;20058;-66
2023/03/30 09:07:19;;;;;;;17.27;3.47;;;;;;;15.88;69.41;100560.56;5019725;28;20135;-66
2023/03/30 09:09:46;;;;;;;14.77;2.92;;;;;;;16.07;67.21;100563.84;5033711;28;20061;-66
2023/03/30 09:12:46;;;;;;;14.27;3.58;;;;;;;16.17;68.58;100552.09;5033342;28;20030;-66
2023/03/30 09:15:24;;;;;;;19.08;3.40;;;;;;;16.09;66.22;100555.81;5033548;28;20032;-65
2023/03/30 09:18:06;;;;;;;12.07;3.25;;;;;;;15.87;66.74;100576.59;5033098;28;20128;-66
2023/03/30 09:20:37;;;;;;;12.93;3.20;;;;;;;15.80;66.44;100583.78;5033500;28;20059;-66
2023/03/30 09:23:10;;;;;;;14.57;3.50;;;;;;;15.62;65.28;100568.91;5033466;28;20025;-66
2023/03/30 09:25:57;;;;;;;14.70;3.33;;;;;;;15.42;67.00;100585.19;5033271;28;20030;-66
2023/03/30 09:28:43;;;;;;;10.90;3.10;;;;;;;15.24;67.68;100596.06;5033106;28;20037;-66
2023/03/30 09:32:06;;;;;;;13.60;3.40;;;;;;;15.08;68.47;100598.03;5032752;28;20056;-66
2023/03/30 09:34:40;;;;;;;13.82;3.47;;;;;;;14.94;67.56;100603.50;4967859;28;20027;-67
2023/03/30 09:37:10;;;;;;;15.82;3.20;;;;;;;14.84;68.04;100603.63;5018923;28;20029;-66
2023/03/30 09:39:37;;;;;;;16.77;3.47;;;;;;;14.83;68.95;100602.75;5032309;28;20040;-66
2023/03/30 09:42:23;;;;;;;14.32;3.90;;;;;;;15.08;68.19;100603.38;5032888;28;20036;-67
2023/03/30 09:44:59;;;;;;;16.02;3.60;;;;;;;15.28;65.26;100613.75;5032977;28;20443;-67
2023/03/30 09:47:35;;;;;;;13.70;3.42;;;;;;;15.62;66.15;100600.00;5032922;28;20037;-67
2023/03/30 09:50:07;;;;;;;17.52;4.10;;;;;;;16.01;65.05;100607.44;5032885;28;20061;-67
2023/03/30 09:52:37;;;;;;;;;;;;;;;16.24;64.94;100593.75;5033585;28;20022;-67
2023/03/30 09:55:27;;;;;;;17.27;3.70;;;;;;;16.25;64.72;100605.31;5032820;28;19913;-67
2023/03/30 09:58:17;;;;;;;16.58;3.80;;;;;;;16.26;63.40;100615.94;5036654;28;20033;-67
2023/03/30 10:00:43;;;;;;;23.05;3.88;;;;;;;16.10;63.69;100610.88;5030541;28;20037;-66
2023/03/30 10:03:19;;;;;;;15.82;3.78;;;;;;;15.93;62.36;100605.78;5036746;28;20030;-67
2023/03/30 10:06:01;;;;;;;18.90;3.78;;;;;;;15.80;63.59;100613.09;5036409;28;20503;-67
2023/03/30 10:08:27;;;;;;;18.40;3.83;;;;;;;15.68;64.05;100616.84;5036734;28;20033;-67
2023/03/30 10:10:54;;;;;;;14.65;3.75;;;;;;;15.62;65.31;100616.88;5036565;28;20060;-66
2023/03/30 10:13:30;;;;;;;18.33;3.75;;;;;;;15.60;66.19;100613.34;5036543;28;20056;-67
2023/03/30 10:16:04;;;;;;;19.45;3.95;;;;;;;15.58;66.54;100614.25;5036644;28;20052;-67
2023/03/30 10:18:42;;;;;;;19.35;4.20;;;;;;;15.56;65.25;100629.41;5036506;28;20029;-67
2023/03/30 10:21:16;;;;;;;17.15;3.85;;;;;;;15.48;65.36;100625.03;5036386;28;20025;-67
2023/03/30 10:23:44;;;;;;;17.92;4.22;;;;;;;15.42;66.30;100635.78;5036555;28;20033;-67
2023/03/30 10:26:20;;;;;;;16.35;3.70;;;;;;;15.51;65.66;100625.00;5036298;28;20487;-67
2023/03/30 10:29:10;;;;;;;18.75;3.70;;;;;;;15.75;65.72;100631.81;5036416;28;20033;-66
2023/03/30 10:31:38;;;;;;;20.25;4.00;;;;;;;16.03;64.70;100626.97;5036422;28;20030;-67
2023/03/30 10:34:27;;;;;;;19.98;4.20;;;;;;;16.52;64.15;100631.50;5036157;28;20490;-66
2023/03/30 10:36:53;;;;;;;21.25;3.92;;;;;;;16.89;61.77;100633.56;5036230;28;20510;-66
2023/03/30 10:39:31;;;;;;;16.17;3.42;;;;;;;17.04;61.12;100608.34;5036399;28;20098;-67
2023/03/30 10:42:00;;;;;;;13.55;3.58;;;;;;;16.98;60.25;100628.03;5036365;28;20021;-66
2023/03/30 10:44:34;;;;;;;13.07;3.45;;;;;;;16.92;59.36;100636.19;5036309;28;20048;-66
2023/03/30 10:47:16;;;;;;;12.77;3.58;;;;;;;16.90;59.11;100623.75;5035968;28;20021;-65
2023/03/30 10:49:58;;;;;;;19.05;4.00;;;;;;;16.93;59.62;100618.38;5035878;28;20025;-67
2023/03/30 10:52:36;;;;;;;20.40;4.10;;;;;;;17.03;59.75;100612.81;5035997;28;20030;-66
2023/03/30 10:55:14;;;;;;;19.77;4.05;;;;;;;17.18;59.58;100640.13;5035781;28;20064;-64
2023/03/30 10:57:55;;;;;;;13.43;3.30;;;;;;;17.16;57.50;100613.44;5035883;28;20029;-66
2023/03/30 11:00:30;;;;;;;13.48;3.72;;;;;;;17.34;57.76;100627.34;5035605;28;20538;-65
2023/03/30 11:03:05;;;;;;;16.13;3.90;;;;;;;17.41;56.38;100618.28;5035657;28;20036;-64
2023/03/30 11:05:37;;;;;;;12.10;3.70;;;;;;;17.36;57.42;100633.53;5035559;28;20021;-66
2023/03/30 11:08:06;;;;;;;17.25;3.53;;;;;;;17.32;58.39;100631.84;5035486;28;20359;-65
2023/03/30 11:10:37;;;;;;;18.75;4.05;;;;;;;17.35;58.49;100630.00;5035227;28;20025;-65
2023/03/30 11:13:30;;;;;;;14.13;3.42;;;;;;;17.60;57.91;100626.78;5035681;28;20034;-65
2023/03/30 11:16:10;;;;;;;13.00;3.58;;;;;;;17.65;57.43;100631.13;5035452;28;20033;-66
2023/03/30 11:18:54;;;;;;;13.75;3.95;;;;;;;17.66;57.46;100626.66;5035483;28;20033;-66
2023/03/30 11:21:35;;;;;;;14.77;3.33;;;;;;;17.89;55.55;100620.81;5035253;28;20025;-65
2023/03/30 11:24:18;;;;;;;14.35;3.58;;;;;;;18.18;54.91;100629.06;5035309;28;20115;-65
2023/03/30 11:26:58;;;;;;;14.35;3.42;;;;;;;18.30;54.57;100621.66;5035446;28;20037;-65
2023/03/30 11:29:47;;;;;;;14.55;3.50;;;;;;;18.27;55.32;100619.91;5035387;28;20049;-65
2023/03/30 11:32:49;;;;;;;14.80;3.90;;;;;;;18.01;56.36;100626.78;5035263;28;20044;-65
2023/03/30 11:35:34;;;;;;;12.85;3.50;;;;;;;17.72;55.64;100619.38;5034868;28;20033;-65
2023/03/30 11:38:09;;;;;;;18.90;3.75;;;;;;;17.51;56.33;100630.53;5034333;28;20160;-65